Time;durP1;ratioP1;P1;durP2;ratioP2;P2;SDS_P1;SDS_P2;PMS_P1;PMS_P2;Temp;Humidity;BMP_temperature;BMP_pressure;BME280_temperature;BME280_humidity;BME280_pressure;Samples;Min_cycle;Max_cycle;Signal;HPM_P1;HPM_P2
2022/03/24 00:00:15;;;;;;;;;44.50;38.00;24.50;99.90;;;;;;5039224;28;8734;-79
2022/03/24 00:02:42;;;;;;;;;42.25;34.50;24.60;99.90;;;;;;5019397;28;8775;-78
2022/03/24 00:05:11;;;;;;;;;49.50;39.75;24.60;99.90;;;;;;5019476;28;8788;-79
2022/03/24 00:07:38;;;;;;;;;42.75;37.00;24.70;99.90;;;;;;5019053;28;10001;-79
2022/03/24 00:10:06;;;;;;;;;36.25;32.00;24.70;99.90;;;;;;5020213;28;8775;-79
2022/03/24 00:12:34;;;;;;;;;37.75;32.00;24.70;99.90;;;;;;5019150;28;9417;-78
2022/03/24 00:15:05;;;;;;;;;39.00;33.50;24.80;99.90;;;;;;5019366;28;8782;-79
2022/03/24 00:17:32;;;;;;;;;42.00;33.75;24.70;99.90;;;;;;5008247;28;8760;-79
2022/03/24 00:19:59;;;;;;;;;42.75;34.00;24.70;99.90;;;;;;5035608;28;8717;-79
2022/03/24 00:22:26;;;;;;;;;41.50;34.75;24.70;99.90;;;;;;5051203;28;8887;-78
2022/03/24 00:24:53;;;;;;;;;46.75;36.75;24.80;99.90;;;;;;5052679;28;8768;-78
2022/03/24 00:27:19;;;;;;;;;37.50;32.25;24.90;99.90;;;;;;5035214;28;8959;-79
2022/03/24 00:29:46;;;;;;;;;37.00;31.25;24.90;99.90;;;;;;5051967;28;8780;-78
2022/03/24 00:32:13;;;;;;;;;32.00;30.75;25.00;99.90;;;;;;5038854;28;8761;-78
2022/03/24 00:34:39;;;;;;;;;34.50;31.50;25.00;99.90;;;;;;5022510;28;8800;-78
2022/03/24 00:37:07;;;;;;;;;36.75;32.50;25.00;99.90;;;;;;5039647;28;8785;-78
2022/03/24 00:39:34;;;;;;;;;36.50;33.00;25.00;99.90;;;;;;5055188;28;8905;-78
2022/03/24 00:42:02;;;;;;;;;32.25;29.00;25.00;99.90;;;;;;5038471;28;8817;-78
2022/03/24 00:44:29;;;;;;;;;35.00;30.25;25.00;99.90;;;;;;5020554;28;8794;-78
2022/03/24 00:46:56;;;;;;;;;40.75;33.25;25.00;99.90;;;;;;5005950;28;8767;-80
2022/03/24 00:49:22;;;;;;;;;29.50;27.75;25.20;99.90;;;;;;5022834;28;8763;-78
2022/03/24 00:51:49;;;;;;;;;37.75;30.75;25.20;99.90;;;;;;5038524;28;8767;-79
2022/03/24 00:54:18;;;;;;;;;36.00;33.00;25.20;99.90;;;;;;5022391;28;8820;-79
2022/03/24 00:56:48;;;;;;;;;31.75;30.25;25.30;99.90;;;;;;5039219;28;9629;-79
2022/03/24 00:59:15;;;;;;;;;32.00;29.75;25.40;99.90;;;;;;5007162;28;8766;-79
2022/03/24 01:01:41;;;;;;;;;32.00;30.25;25.40;99.90;;;;;;5022456;28;8905;-83
2022/03/24 01:04:09;;;;;;;;;25.25;24.25;25.40;99.90;;;;;;5006889;28;8869;-78
2022/03/24 01:06:36;;;;;;;;;26.75;25.50;25.40;99.90;;;;;;5005940;28;8763;-79
2022/03/24 01:09:03;;;;;;;;;32.25;30.00;25.50;99.90;;;;;;5022740;28;8759;-79
2022/03/24 01:11:31;;;;;;;;;34.00;30.75;25.60;99.90;;;;;;5022511;28;8771;-79
2022/03/24 01:13:58;;;;;;;;;27.50;25.50;25.60;99.90;;;;;;5038743;28;8770;-79
2022/03/24 01:16:25;;;;;;;;;30.50;27.25;25.60;99.90;;;;;;5021980;28;8749;-78
2022/03/24 01:18:52;;;;;;;;;32.25;29.50;25.70;99.90;;;;;;5022642;28;8735;-78
2022/03/24 01:21:18;;;;;;;;;28.75;27.50;25.70;99.90;;;;;;5038231;28;8783;-79
2022/03/24 01:23:45;;;;;;;;;26.25;26.25;25.70;99.90;;;;;;5005377;28;8767;-79
2022/03/24 01:26:11;;;;;;;;;30.75;29.25;25.70;99.90;;;;;;5004671;28;8758;-79
2022/03/24 01:28:39;;;;;;;;;33.00;29.50;25.90;99.90;;;;;;5021103;28;8834;-84
2022/03/24 01:31:08;;;;;;;;;29.50;25.75;25.80;99.90;;;;;;5039035;28;8758;-79
2022/03/24 01:33:39;;;;;;;;;28.25;27.50;25.90;99.90;;;;;;5021395;28;8750;-79
2022/03/24 01:36:06;;;;;;;;;33.00;30.00;25.90;99.90;;;;;;5021988;28;8739;-78
2022/03/24 01:38:33;;;;;;;;;26.25;25.00;25.90;99.90;;;;;;5021563;28;8810;-78
2022/03/24 01:41:00;;;;;;;;;28.75;26.00;26.00;99.90;;;;;;5005108;28;8785;-79
2022/03/24 01:43:26;;;;;;;;;27.25;24.75;26.00;99.90;;;;;;5037580;28;9397;-82
2022/03/24 01:45:54;;;;;;;;;29.75;28.25;26.00;99.90;;;;;;5018759;28;8746;-78
2022/03/24 01:48:21;;;;;;;;;27.00;25.25;25.90;99.90;;;;;;5037835;28;8835;-78
2022/03/24 01:50:48;;;;;;;;;24.25;22.50;26.00;99.90;;;;;;5021565;28;8758;-79
2022/03/24 01:53:14;;;;;;;;;26.25;24.25;26.00;99.90;;;;;;5037666;28;8761;-78
2022/03/24 01:55:44;;;;;;;;;22.50;22.50;26.10;99.90;;;;;;5037223;28;8868;-79
2022/03/24 01:58:11;;;;;;;;;28.25;23.75;26.20;99.90;;;;;;5038315;28;8738;-78
2022/03/24 02:00:38;;;;;;;;;26.75;23.25;26.20;99.90;;;;;;5037598;28;8746;-79
2022/03/24 02:03:05;;;;;;;;;25.25;24.00;26.40;99.90;;;;;;5021125;28;8765;-79
2022/03/24 02:05:32;;;;;;;;;27.00;24.75;26.50;99.90;;;;;;5037728;28;8754;-79
2022/03/24 02:08:03;;;;;;;;;31.00;27.75;26.60;99.90;;;;;;5037621;28;8750;-78
2022/03/24 02:10:34;;;;;;;;;24.75;24.00;26.60;99.90;;;;;;5037841;28;8738;-84
2022/03/24 02:13:01;;;;;;;;;25.50;25.50;26.70;99.90;;;;;;5038733;28;8892;-79
2022/03/24 02:15:28;;;;;;;;;27.00;25.75;26.70;99.90;;;;;;5020380;28;8757;-79
2022/03/24 02:17:55;;;;;;;;;28.75;27.00;26.80;99.90;;;;;;5016981;28;8725;-81
2022/03/24 02:20:22;;;;;;;;;27.75;23.00;26.90;99.90;;;;;;5017368;28;8878;-81
2022/03/24 02:22:49;;;;;;;;;29.50;26.75;26.90;99.90;;;;;;5033373;28;8772;-80
2022/03/24 02:25:16;;;;;;;;;27.75;23.75;26.80;99.90;;;;;;5034441;28;8824;-81
2022/03/24 02:27:47;;;;;;;;;30.00;26.75;26.90;99.90;;;;;;5033509;28;9452;-81
2022/03/24 02:30:13;;;;;;;;;33.00;30.25;26.90;99.90;;;;;;5032981;28;9480;-82
2022/03/24 02:32:40;;;;;;;;;21.00;20.75;27.00;99.90;;;;;;5042292;28;8742;-82
2022/03/24 02:35:07;;;;;;;;;22.00;22.00;27.10;99.90;;;;;;5020093;28;8734;-82
2022/03/24 02:37:34;;;;;;;;;24.50;23.00;27.10;99.90;;;;;;5053302;28;8738;-82
2022/03/24 02:40:10;;;;;;;;;26.25;23.25;27.00;99.90;;;;;;5021056;28;8773;-83
2022/03/24 02:42:38;;;;;;;;;26.50;25.75;27.10;99.90;;;;;;5037266;28;8750;-83
2022/03/24 02:45:06;;;;;;;;;23.75;22.50;27.40;99.90;;;;;;5053498;28;8750;-82
2022/03/24 02:47:33;;;;;;;;;26.75;23.25;27.40;99.90;;;;;;5053078;28;8759;-82
2022/03/24 02:49:59;;;;;;;;;26.50;25.50;27.30;99.90;;;;;;5036318;28;9114;-82
2022/03/24 02:52:26;;;;;;;;;23.75;23.25;27.50;99.90;;;;;;5053623;28;8762;-83
2022/03/24 02:54:53;;;;;;;;;25.25;22.25;27.60;99.90;;;;;;5054798;28;8767;-81
2022/03/24 02:57:20;;;;;;;;;25.25;22.25;27.60;99.90;;;;;;5053405;28;8778;-80
2022/03/24 02:59:47;;;;;;;;;23.75;22.00;27.70;99.90;;;;;;5053778;28;8786;-82
2022/03/24 03:02:15;;;;;;;;;18.25;17.00;27.70;99.90;;;;;;5053096;28;9420;-83
2022/03/24 03:04:43;;;;;;;;;21.00;19.75;27.90;99.90;;;;;;5019942;28;8775;-82
2022/03/24 03:07:10;;;;;;;;;21.00;19.75;27.90;99.90;;;;;;5037099;28;8859;-84
2022/03/24 03:09:37;;;;;;;;;27.00;23.25;27.90;99.90;;;;;;5002816;28;8782;-83
2022/03/24 03:12:05;;;;;;;;;25.25;25.00;28.00;99.90;;;;;;5035967;28;8783;-79
2022/03/24 03:14:31;;;;;;;;;24.50;22.25;28.00;99.90;;;;;;5053276;28;8767;-80
2022/03/24 03:16:58;;;;;;;;;23.50;22.75;28.10;99.90;;;;;;4999705;28;8854;-82
2022/03/24 03:19:25;;;;;;;;;25.00;22.67;28.20;99.90;;;;;;5015955;28;8769;-80
2022/03/24 03:21:52;;;;;;;;;27.25;24.25;28.20;99.90;;;;;;5034142;28;8789;-82
2022/03/24 03:24:21;;;;;;;;;26.00;23.75;28.30;99.90;;;;;;5033706;28;8765;-82
2022/03/24 03:26:48;;;;;;;;;21.75;21.25;28.20;99.90;;;;;;5033661;28;8872;-79
2022/03/24 03:29:14;;;;;;;;;23.50;21.75;28.20;99.90;;;;;;4999994;28;8768;-82
2022/03/24 03:31:41;;;;;;;;;21.75;20.75;28.40;99.90;;;;;;5017616;28;8761;-83
2022/03/24 03:34:08;;;;;;;;;24.75;22.25;28.40;99.90;;;;;;5003818;28;8743;-88
2022/03/24 03:36:35;;;;;;;;;25.75;25.25;28.40;99.90;;;;;;5002818;28;8751;-83
2022/03/24 03:39:02;;;;;;;;;20.75;20.25;28.50;99.90;;;;;;5019641;28;8921;-80
2022/03/24 03:41:29;;;;;;;;;20.60;20.60;28.70;99.90;;;;;;5019146;28;8822;-83
2022/03/24 03:43:56;;;;;;;;;23.50;21.50;28.70;99.90;;;;;;5002800;28;8755;-80
2022/03/24 03:46:24;;;;;;;;;23.00;20.60;28.50;99.90;;;;;;5019907;28;8759;-81
2022/03/24 03:48:50;;;;;;;;;18.00;16.50;28.40;99.90;;;;;;5007604;28;9509;-80
2022/03/24 03:51:17;;;;;;;;;17.00;16.00;28.60;99.90;;;;;;5015898;28;8745;-80
2022/03/24 03:53:44;;;;;;;;;22.60;22.00;28.60;99.90;;;;;;5031951;28;8769;-80
2022/03/24 03:56:12;;;;;;;;;19.00;19.00;28.50;99.90;;;;;;5033367;28;8753;-84
2022/03/24 03:58:38;;;;;;;;;15.75;15.00;28.80;99.90;;;;;;5035218;28;8941;-82
2022/03/24 04:01:05;;;;;;;;;18.25;15.75;29.00;99.90;;;;;;5036541;28;8749;-85
2022/03/24 04:03:33;;;;;;;;;17.00;17.00;29.10;99.90;;;;;;5015618;28;8774;-83
2022/03/24 04:06:04;;;;;;;;;16.20;14.60;29.10;99.90;;;;;;4999962;28;8747;-81
2022/03/24 04:08:35;;;;;;;;;13.00;13.00;29.10;99.90;;;;;;5016701;28;8771;-83
2022/03/24 04:11:01;;;;;;;;;15.25;15.25;29.10;99.90;;;;;;4983732;28;9094;-80
2022/03/24 04:13:28;;;;;;;;;20.00;18.50;29.10;99.90;;;;;;5016674;28;8813;-80
2022/03/24 04:15:55;;;;;;;;;20.20;17.80;29.10;99.90;;;;;;5017433;28;8750;-84
2022/03/24 04:18:24;;;;;;;;;16.80;16.80;29.30;99.90;;;;;;4982799;28;8767;-83
2022/03/24 04:20:51;;;;;;;;;15.50;14.25;29.20;99.90;;;;;;5016940;28;8854;-80
2022/03/24 04:23:18;;;;;;;;;15.75;15.00;29.40;99.90;;;;;;5016780;28;8832;-80
2022/03/24 04:29:24;;;;;;;;;16.25;16.25;29.30;99.90;;;;;;5054855;27;13498;-64
2022/03/24 04:31:51;;;;;;;;;17.00;17.00;29.40;99.90;;;;;;5052264;28;8754;-72
2022/03/24 04:34:17;;;;;;;;;21.00;17.80;29.40;99.90;;;;;;5055151;28;8730;-70
2022/03/24 04:36:44;;;;;;;;;18.00;18.00;29.50;99.90;;;;;;5054777;28;8734;-66
2022/03/24 04:39:10;;;;;;;;;15.60;15.60;29.60;99.90;;;;;;5054830;28;8761;-74
2022/03/24 04:41:41;;;;;;;;;16.25;16.25;29.60;99.90;;;;;;5054322;28;8808;-74
2022/03/24 04:44:08;;;;;;;;;16.50;15.50;29.70;99.90;;;;;;5053935;28;8773;-65
2022/03/24 04:46:35;;;;;;;;;11.75;11.75;29.70;99.90;;;;;;5052811;28;8750;-61
2022/03/24 04:49:02;;;;;;;;;23.20;20.80;29.70;99.90;;;;;;5033152;28;8755;-73
2022/03/24 04:51:29;;;;;;;;;15.80;15.80;29.80;99.90;;;;;;5033449;28;8757;-73
2022/03/24 04:53:55;;;;;;;;;19.25;17.25;29.80;99.90;;;;;;5033616;28;9153;-67
2022/03/24 04:56:22;;;;;;;;;15.00;15.00;30.00;99.90;;;;;;5033538;28;8856;-56
2022/03/24 04:58:49;;;;;;;;;15.00;15.00;29.90;99.90;;;;;;5033716;28;8774;-72
2022/03/24 05:01:15;;;;;;;;;16.50;16.50;30.10;99.90;;;;;;5033104;28;8769;-74
2022/03/24 05:03:46;;;;;;;;;18.50;17.50;29.80;99.90;;;;;;5050222;28;8748;-72
2022/03/24 05:06:14;;;;;;;;;20.00;17.25;29.90;99.90;;;;;;5052331;28;8790;-50
2022/03/24 05:08:40;;;;;;;;;19.25;15.75;30.00;99.90;;;;;;5053385;28;8775;-65
2022/03/24 05:11:07;;;;;;;;;18.75;16.50;29.90;99.90;;;;;;5053614;28;8748;-73
2022/03/24 05:13:34;;;;;;;;;9.00;8.00;30.30;98.90;;;;;;5053253;28;9435;-72
2022/03/24 05:16:00;;;;;;;;;20.25;17.50;30.20;99.90;;;;;;5053799;28;8728;-62
2022/03/24 05:18:27;;;;;;;;;17.50;16.25;30.40;98.60;;;;;;5037014;28;8741;-65
2022/03/24 05:20:53;;;;;;;;;19.40;18.00;30.30;98.80;;;;;;5033635;28;8719;-73
2022/03/24 05:23:20;;;;;;;;;15.25;14.25;30.30;98.70;;;;;;5031961;28;8834;-73
2022/03/24 05:25:49;;;;;;;;;20.25;18.25;30.40;99.10;;;;;;5033431;28;8782;-66
2022/03/24 05:28:16;;;;;;;;;17.75;17.50;30.60;98.60;;;;;;5044749;28;8765;-60
2022/03/24 05:30:43;;;;;;;;;20.00;17.00;30.30;98.50;;;;;;5035340;28;8784;-71
2022/03/24 05:33:10;;;;;;;;;16.50;15.50;30.30;99.00;;;;;;5081596;28;8731;-73
2022/03/24 05:35:36;;;;;;;;;15.50;15.00;30.40;99.80;;;;;;5072287;28;8751;-63
2022/03/24 05:38:03;;;;;;;;;18.00;18.00;30.80;98.50;;;;;;5072614;28;8813;-71
2022/03/24 05:40:30;;;;;;;;;18.25;16.25;30.50;98.90;;;;;;5060672;28;8731;-71
2022/03/24 05:42:57;;;;;;;;;22.00;18.50;30.50;99.40;;;;;;5060232;28;8747;-68
2022/03/24 05:45:24;;;;;;;;;18.50;16.50;30.80;98.60;;;;;;5074357;28;8766;-70
2022/03/24 05:47:50;;;;;;;;;16.75;16.75;30.50;98.00;;;;;;5047841;28;8734;-73
2022/03/24 05:50:17;;;;;;;;;18.25;17.25;30.50;98.40;;;;;;5039405;28;8741;-67
2022/03/24 05:52:45;;;;;;;;;17.50;14.75;30.40;99.00;;;;;;5021795;28;8768;-69
2022/03/24 05:55:12;;;;;;;;;14.75;10.25;30.70;99.80;;;;;;5039768;28;8759;-68
2022/03/24 05:57:41;;;;;;;;;11.75;10.00;30.80;99.10;;;;;;5004804;28;8763;-68
2022/03/24 06:00:08;;;;;;;;;18.75;17.50;31.00;99.10;;;;;;5039084;28;8826;-72
2022/03/24 06:02:43;;;;;;;;;18.75;17.00;31.00;97.60;;;;;;5047533;28;8707;-60
2022/03/24 06:05:12;;;;;;;;;15.25;14.00;31.00;96.90;;;;;;5041057;28;8715;-73
2022/03/24 06:07:39;;;;;;;;;17.50;17.25;30.90;97.80;;;;;;5058572;28;8813;-63
2022/03/24 06:10:22;;;;;;;;;16.50;15.25;31.20;98.40;;;;;;5059500;28;8706;-60
2022/03/24 06:12:48;;;;;;;;;16.00;14.75;31.00;97.00;;;;;;5041800;28;8735;-72
2022/03/24 06:15:15;;;;;;;;;15.00;15.00;31.20;97.10;;;;;;5058863;28;8722;-73
2022/03/24 06:17:42;;;;;;;;;18.75;16.50;30.90;96.10;;;;;;5048902;28;8749;-63
2022/03/24 06:20:09;;;;;;;;;16.75;16.75;30.90;95.40;;;;;;5021460;28;8755;-66
2022/03/24 06:22:55;;;;;;;;;17.00;16.80;31.20;96.50;;;;;;5038596;28;9227;-69
2022/03/24 06:25:22;;;;;;;;;16.50;16.25;31.20;95.60;;;;;;5054383;28;8752;-71
2022/03/24 06:27:50;;;;;;;;;21.00;15.50;31.40;94.60;;;;;;5037872;28;8751;-68
2022/03/24 06:30:22;;;;;;;;;16.50;16.00;31.60;94.40;;;;;;5038706;28;8906;-63
2022/03/24 06:32:48;;;;;;;;;16.75;14.25;31.40;94.90;;;;;;5048435;28;8722;-73
2022/03/24 06:35:15;;;;;;;;;13.75;13.75;31.50;95.50;;;;;;5058500;28;8739;-72
2022/03/24 06:37:42;;;;;;;;;15.00;14.00;31.70;94.60;;;;;;5073945;28;8735;-66
2022/03/24 06:40:10;;;;;;;;;16.60;15.00;31.60;94.10;;;;;;5074298;28;9379;-59
2022/03/24 06:42:37;;;;;;;;;17.40;15.00;31.60;93.60;;;;;;5058209;28;8857;-71
2022/03/24 06:45:04;;;;;;;;;16.80;15.20;31.60;93.60;;;;;;5058165;28;8743;-61
2022/03/24 06:47:31;;;;;;;;;17.80;14.40;31.70;93.30;;;;;;5049160;28;8789;-72
2022/03/24 06:49:58;;;;;;;;;14.50;14.50;32.00;92.90;;;;;;5038154;28;8756;-68
2022/03/24 06:52:24;;;;;;;;;13.00;12.50;31.70;92.70;;;;;;5036872;28;8765;-63
2022/03/24 06:54:51;;;;;;;;;16.00;14.50;31.70;92.30;;;;;;5038645;28;9332;-69
2022/03/24 06:57:18;;;;;;;;;15.00;15.00;31.70;92.80;;;;;;5020204;28;8765;-68
2022/03/24 06:59:44;;;;;;;;;17.50;15.75;32.00;92.70;;;;;;5037613;28;8756;-66
2022/03/24 07:02:11;;;;;;;;;13.00;11.00;31.90;92.70;;;;;;5043729;28;8762;-70
2022/03/24 07:04:37;;;;;;;;;14.75;13.75;32.00;92.20;;;;;;5057542;28;8790;-67
2022/03/24 07:07:04;;;;;;;;;12.20;12.00;31.90;92.20;;;;;;5040463;28;8841;-70
2022/03/24 07:09:31;;;;;;;;;16.00;14.75;31.70;92.60;;;;;;5040076;28;8770;-70
2022/03/24 07:11:58;;;;;;;;;15.75;13.75;31.90;92.30;;;;;;5057532;28;9011;-62
2022/03/24 07:14:25;;;;;;;;;15.25;12.50;31.70;91.90;;;;;;5039810;28;8763;-62
2022/03/24 07:16:52;;;;;;;;;15.50;13.75;31.80;92.00;;;;;;5054990;28;8796;-72
2022/03/24 07:19:21;;;;;;;;;12.50;12.50;31.80;92.20;;;;;;5038205;28;8737;-70
2022/03/24 07:21:48;;;;;;;;;16.50;16.50;31.80;92.50;;;;;;5037448;28;8771;-64
2022/03/24 07:24:14;;;;;;;;;15.75;15.00;31.70;91.40;;;;;;5037572;28;8851;-64
2022/03/24 07:26:50;;;;;;;;;15.75;14.75;31.90;91.90;;;;;;5035946;28;8741;-72
2022/03/24 07:29:16;;;;;;;;;19.75;17.00;32.00;91.20;;;;;;5036888;28;8780;-53
2022/03/24 07:31:43;;;;;;;;;16.20;15.00;32.10;91.00;;;;;;5038319;28;8783;-63
2022/03/24 07:34:11;;;;;;;;;17.60;16.20;32.20;91.50;;;;;;5058081;28;8819;-70
2022/03/24 07:36:37;;;;;;;;;20.75;18.50;32.00;90.20;;;;;;5056901;28;9441;-72
2022/03/24 07:39:05;;;;;;;;;16.00;15.75;31.80;90.70;;;;;;5057322;28;9914;-73
2022/03/24 07:41:32;;;;;;;;;9.50;7.50;32.10;91.50;;;;;;5039325;28;8747;-72
2022/03/24 07:43:59;;;;;;;;;17.75;17.75;32.10;92.00;;;;;;5057408;28;8750;-68
2022/03/24 07:46:27;;;;;;;;;23.75;16.00;32.20;90.60;;;;;;5072477;28;8849;-46
2022/03/24 07:48:56;;;;;;;;;17.25;16.50;32.20;91.40;;;;;;5037951;28;8745;-75
2022/03/24 07:51:23;;;;;;;;;18.75;17.00;32.20;91.10;;;;;;5036881;28;8752;-48
2022/03/24 07:53:50;;;;;;;;;18.25;15.75;32.00;91.60;;;;;;5036880;28;8753;-72
2022/03/24 07:56:17;;;;;;;;;18.00;17.00;32.10;91.40;;;;;;5037053;28;8777;-71
2022/03/24 07:58:44;;;;;;;;;19.25;17.75;32.20;90.50;;;;;;5019179;28;8849;-72
2022/03/24 08:01:11;;;;;;;;;18.00;17.00;32.10;90.10;;;;;;5019914;28;8733;-74
2022/03/24 08:03:40;;;;;;;;;22.00;19.00;31.90;90.50;;;;;;5053816;28;8734;-72
2022/03/24 08:06:07;;;;;;;;;18.75;16.25;31.90;91.30;;;;;;5056794;28;9407;-71
2022/03/24 08:08:33;;;;;;;;;20.00;18.75;32.10;91.20;;;;;;5071911;28;8793;-73
2022/03/24 08:11:00;;;;;;;;;18.25;18.25;32.20;91.50;;;;;;5056486;28;8751;-72
2022/03/24 08:13:27;;;;;;;;;24.75;22.50;32.30;91.60;;;;;;5056660;28;8730;-72
2022/03/24 08:15:56;;;;;;;;;20.25;19.50;32.50;90.40;;;;;;5057334;28;8723;-70
2022/03/24 08:18:23;;;;;;;;;22.25;18.25;32.50;90.40;;;;;;5056258;28;8737;-72
2022/03/24 08:20:52;;;;;;;;;15.75;13.75;32.30;91.20;;;;;;5034240;28;8804;-72
2022/03/24 08:23:20;;;;;;;;;23.50;21.25;32.30;90.70;;;;;;5043355;28;8871;-72
2022/03/24 08:25:47;;;;;;;;;22.25;22.00;32.50;89.90;;;;;;5019481;28;8749;-67
2022/03/24 08:28:14;;;;;;;;;23.50;23.00;32.50;88.90;;;;;;5048795;28;8775;-74
2022/03/24 08:30:41;;;;;;;;;19.50;19.50;32.40;90.00;;;;;;5016590;28;8743;-61
2022/03/24 08:33:11;;;;;;;;;20.75;20.00;32.40;89.60;;;;;;5030007;28;8749;-70
2022/03/24 08:35:39;;;;;;;;;23.25;21.75;32.40;90.20;;;;;;5036520;28;8756;-73
2022/03/24 08:38:06;;;;;;;;;20.00;20.00;32.50;90.40;;;;;;5036856;28;8755;-72
2022/03/24 08:40:32;;;;;;;;;23.00;22.75;32.50;90.10;;;;;;5034927;28;8749;-73
2022/03/24 08:42:59;;;;;;;;;20.25;19.00;32.60;88.90;;;;;;5037274;28;8851;-74
2022/03/24 08:45:26;;;;;;;;;21.00;20.00;32.50;90.40;;;;;;5036317;28;8743;-49
2022/03/24 08:47:55;;;;;;;;;25.25;23.75;32.40;90.00;;;;;;5024876;28;8805;-71
2022/03/24 08:50:23;;;;;;;;;22.75;20.75;32.50;89.00;;;;;;5016791;28;8766;-52
2022/03/24 08:52:49;;;;;;;;;21.25;20.25;32.50;88.70;;;;;;5016995;28;8762;-70
2022/03/24 08:55:16;;;;;;;;;24.50;21.75;32.50;89.40;;;;;;5017408;28;8711;-73
2022/03/24 08:57:43;;;;;;;;;26.25;22.00;32.30;89.60;;;;;;5016427;28;8814;-69
2022/03/24 09:00:15;;;;;;;;;24.50;21.50;32.20;90.50;;;;;;5016206;28;8763;-68
2022/03/24 09:02:50;;;;;;;;;28.50;25.50;32.30;89.50;;;;;;5024491;28;8786;-74
2022/03/24 09:05:17;;;;;;;;;24.00;22.25;32.50;89.60;;;;;;5036723;28;8765;-70
2022/03/24 09:07:43;;;;;;;;;22.00;22.00;32.30;90.00;;;;;;5034909;28;9023;-60
2022/03/24 09:10:12;;;;;;;;;21.50;21.50;32.20;90.30;;;;;;5037012;28;8783;-67
2022/03/24 09:12:40;;;;;;;;;19.00;16.50;32.30;90.60;;;;;;5035832;28;9545;-73
2022/03/24 09:15:08;;;;;;;;;21.25;21.25;32.40;90.00;;;;;;5038099;28;8829;-72
2022/03/24 09:17:35;;;;;;;;;17.50;17.00;32.50;89.30;;;;;;5031094;28;8763;-51
2022/03/24 09:20:03;;;;;;;;;26.00;23.75;32.40;89.90;;;;;;5020607;28;8774;-63
2022/03/24 09:22:30;;;;;;;;;25.50;23.00;32.50;90.00;;;;;;5018606;28;8747;-62
2022/03/24 09:24:57;;;;;;;;;25.25;23.75;32.50;89.60;;;;;;5020879;28;8782;-64
2022/03/24 09:27:24;;;;;;;;;24.50;22.75;32.50;88.00;;;;;;5023140;28;8831;-73
2022/03/24 09:29:52;;;;;;;;;27.25;24.50;32.50;89.60;;;;;;5022293;28;8757;-63
2022/03/24 09:32:19;;;;;;;;;24.00;22.75;32.50;89.60;;;;;;5045392;28;8805;-69
2022/03/24 09:34:45;;;;;;;;;26.00;26.00;32.50;88.40;;;;;;5041205;28;8751;-72
2022/03/24 09:37:16;;;;;;;;;21.00;18.00;32.40;89.70;;;;;;5060128;28;8734;-63
2022/03/24 09:39:44;;;;;;;;;26.25;24.00;32.50;89.50;;;;;;5059433;28;8747;-66
2022/03/24 09:42:11;;;;;;;;;28.25;26.50;32.40;90.00;;;;;;5059225;28;8774;-66
2022/03/24 09:44:38;;;;;;;;;29.25;27.50;32.40;90.00;;;;;;5041348;28;9523;-73
2022/03/24 09:47:04;;;;;;;;;26.00;25.50;32.20;90.20;;;;;;5054753;28;8769;-54
2022/03/24 09:49:31;;;;;;;;;29.00;28.50;32.30;90.10;;;;;;5054425;28;8741;-72
2022/03/24 09:51:58;;;;;;;;;29.75;28.50;32.30;90.50;;;;;;5038623;28;8729;-50
2022/03/24 09:54:24;;;;;;;;;30.75;28.25;32.30;89.90;;;;;;5039112;28;8760;-70
2022/03/24 09:56:51;;;;;;;;;28.50;24.25;32.20;90.30;;;;;;5038372;28;8777;-74
2022/03/24 09:59:17;;;;;;;;;28.50;27.00;32.20;90.20;;;;;;5054306;28;8765;-50
2022/03/24 10:01:44;;;;;;;;;31.25;29.75;32.10;90.10;;;;;;5040646;28;8988;-51
2022/03/24 10:04:14;;;;;;;;;29.25;26.50;32.10;90.10;;;;;;5075114;28;8730;-63
2022/03/24 10:06:59;;;;;;;;;27.25;25.25;32.00;90.20;;;;;;5058976;28;8727;-67
2022/03/24 10:09:36;;;;;;;;;33.75;30.50;32.10;89.80;;;;;;5058719;28;8751;-72
2022/03/24 10:12:04;;;;;;;;;30.25;27.75;32.00;89.80;;;;;;5058805;28;8778;-63
2022/03/24 10:14:31;;;;;;;;;31.50;29.75;32.00;89.80;;;;;;5041113;28;8770;-63
2022/03/24 10:17:08;;;;;;;;;29.75;28.50;31.80;90.00;;;;;;5070912;28;8775;-72
2022/03/24 10:19:36;;;;;;;;;28.25;28.25;31.80;90.30;;;;;;5038494;28;8748;-72
2022/03/24 10:22:10;;;;;;;;;30.00;28.75;31.80;90.30;;;;;;5039183;28;8922;-68
2022/03/24 10:24:43;;;;;;;;;35.25;30.25;31.90;90.10;;;;;;5038699;28;8811;-72
2022/03/24 10:27:11;;;;;;;;;32.75;29.75;31.80;90.60;;;;;;5038053;28;8771;-69
2022/03/24 10:29:38;;;;;;;;;28.50;25.50;31.80;90.40;;;;;;5038410;28;8785;-71
2022/03/24 10:32:10;;;;;;;;;29.75;28.25;31.80;90.50;;;;;;5042761;28;8771;-72
2022/03/24 10:34:39;;;;;;;;;33.00;30.25;31.80;90.50;;;;;;5063290;28;8787;-66
2022/03/24 10:37:13;;;;;;;;;31.75;31.00;31.70;90.30;;;;;;5058859;28;8723;-64
2022/03/24 10:39:57;;;;;;;;;35.50;32.25;31.70;90.20;;;;;;5057227;28;8769;-72
2022/03/24 10:42:26;;;;;;;;;33.00;29.25;31.70;90.10;;;;;;5058312;28;9427;-73
2022/03/24 10:45:14;;;;;;;;;30.75;29.50;31.60;90.30;;;;;;5058087;28;9466;-72
2022/03/24 10:47:54;;;;;;;;;35.00;31.50;31.60;90.50;;;;;;5048746;28;8789;-56
2022/03/24 10:50:26;;;;;;;;;24.25;22.50;31.50;90.40;;;;;;5038351;28;8761;-66
2022/03/24 10:52:56;;;;;;;;;30.75;30.25;31.50;90.80;;;;;;5038290;28;8752;-66
2022/03/24 10:56:00;;;;;;;;;31.00;30.00;31.50;90.70;;;;;;5020748;28;8860;-70
2022/03/24 10:58:39;;;;;;;;;31.25;28.75;31.50;90.90;;;;;;5035419;28;8791;-69
2022/03/24 11:01:08;;;;;;;;;32.50;28.75;31.40;90.90;;;;;;5039006;28;8854;-66
2022/03/24 11:03:34;;;;;;;;;34.50;31.75;31.40;90.80;;;;;;5036478;28;8771;-72
2022/03/24 11:06:17;;;;;;;;;30.50;29.50;31.40;90.90;;;;;;5057759;28;8775;-73
2022/03/24 11:08:44;;;;;;;;;33.25;29.75;31.40;90.80;;;;;;5058201;28;8802;-70
2022/03/24 11:11:14;;;;;;;;;32.00;30.50;31.30;90.80;;;;;;5040282;28;9431;-70
2022/03/24 11:13:45;;;;;;;;;34.75;28.50;31.30;90.90;;;;;;5057741;28;9403;-69
2022/03/24 11:16:12;;;;;;;;;33.50;31.25;31.30;91.10;;;;;;5058571;28;8750;-72
2022/03/24 11:18:39;;;;;;;;;30.50;27.00;31.30;91.10;;;;;;5055323;28;8813;-69
2022/03/24 11:21:21;;;;;;;;;31.25;29.50;31.30;91.00;;;;;;5037774;28;8761;-60
2022/03/24 11:23:48;;;;;;;;;33.50;30.00;31.20;90.80;;;;;;5037788;28;8753;-73
2022/03/24 11:26:14;;;;;;;;;29.50;27.50;31.20;90.80;;;;;;5037596;28;8745;-72
2022/03/24 11:28:43;;;;;;;;;26.50;26.50;31.20;90.90;;;;;;5019498;28;9490;-67
2022/03/24 11:31:11;;;;;;;;;29.25;29.00;31.10;90.90;;;;;;5020975;28;8737;-73
2022/03/24 11:33:47;;;;;;;;;24.75;22.50;31.10;90.90;;;;;;5036821;28;8806;-72
2022/03/24 11:36:15;;;;;;;;;28.75;28.75;31.10;90.70;;;;;;5040937;28;8766;-73
2022/03/24 11:38:42;;;;;;;;;31.75;29.50;31.10;90.90;;;;;;5055923;28;8794;-61
2022/03/24 11:41:20;;;;;;;;;32.25;29.50;31.10;90.80;;;;;;5057094;28;8884;-68
2022/03/24 11:43:50;;;;;;;;;33.75;30.25;31.10;91.00;;;;;;5047532;28;8858;-73
2022/03/24 11:46:40;;;;;;;;;31.75;30.00;31.00;90.70;;;;;;5057538;28;8731;-72
2022/03/24 11:49:35;;;;;;;;;31.25;30.00;31.00;90.60;;;;;;5028816;28;8812;-67
2022/03/24 11:52:02;;;;;;;;;26.00;24.00;30.90;90.70;;;;;;5034963;28;8761;-72
2022/03/24 11:54:31;;;;;;;;;31.00;27.00;30.90;90.70;;;;;;5036743;28;8761;-69
2022/03/24 11:57:23;;;;;;;;;29.75;28.25;30.90;90.80;;;;;;5037022;28;8777;-73
2022/03/24 11:59:50;;;;;;;;;31.50;29.50;30.80;90.90;;;;;;5037612;28;8777;-66
2022/03/24 12:02:18;;;;;;;;;28.75;28.75;30.70;90.90;;;;;;5043027;28;8983;-63
2022/03/24 12:04:51;;;;;;;;;33.25;30.00;30.70;90.90;;;;;;5039144;28;8797;-72
2022/03/24 12:07:18;;;;;;;;;34.00;31.50;30.70;91.20;;;;;;5039596;28;8771;-68
2022/03/24 12:10:08;;;;;;;;;30.75;28.50;30.70;91.20;;;;;;5056807;28;8746;-74
2022/03/24 12:12:35;;;;;;;;;30.75;28.75;30.60;91.30;;;;;;5056853;28;8755;-72
2022/03/24 12:15:18;;;;;;;;;26.50;26.25;30.60;91.20;;;;;;5056601;28;8755;-47
2022/03/24 12:18:06;;;;;;;;;31.50;29.25;30.60;91.20;;;;;;5019074;28;8776;-65
2022/03/24 12:20:43;;;;;;;;;32.50;29.00;30.60;91.30;;;;;;5036682;28;8768;-70
2022/03/24 12:23:10;;;;;;;;;31.50;28.75;30.50;91.50;;;;;;5019356;28;8757;-72
2022/03/24 12:25:37;;;;;;;;;27.50;27.50;30.50;91.50;;;;;;5035149;28;8749;-66
2022/03/24 12:28:09;;;;;;;;;28.75;28.75;30.40;91.50;;;;;;5036735;28;8918;-72
2022/03/24 12:30:45;;;;;;;;;31.25;26.50;30.40;91.90;;;;;;5036229;28;8753;-73
2022/03/24 12:33:13;;;;;;;;;25.75;25.25;30.30;91.80;;;;;;5065767;28;8821;-73
2022/03/24 12:35:43;;;;;;;;;30.25;28.25;30.30;91.90;;;;;;5039011;28;9403;-72
2022/03/24 12:38:34;;;;;;;;;31.00;29.50;30.20;91.90;;;;;;5056553;28;8747;-63
2022/03/24 12:41:08;;;;;;;;;29.25;25.25;30.20;91.80;;;;;;5057065;28;8750;-72
2022/03/24 12:43:46;;;;;;;;;30.50;28.00;30.20;91.60;;;;;;5056155;28;8739;-74
2022/03/24 12:46:28;;;;;;;;;28.00;26.50;30.30;91.60;;;;;;5056909;28;8747;-74